Time;durP1;ratioP1;P1;durP2;ratioP2;P2;SDS_P1;SDS_P2;PMS_P1;PMS_P2;Temp;Humidity;BMP_temperature;BMP_pressure;BME280_temperature;BME280_humidity;BME280_pressure;Samples;Min_cycle;Max_cycle;Signal;HPM_P1;HPM_P2
2023/08/18 00:01:44;;;;;;;38.57;31.50;;;18.10;99.90;;;;;;4980189;28;20888;-58
2023/08/18 00:04:11;;;;;;;39.93;29.57;;;18.00;99.90;;;;;;4978695;28;20505;-57
2023/08/18 00:06:38;;;;;;;38.30;29.90;;;18.00;99.90;;;;;;4963117;28;20471;-58
2023/08/18 00:09:06;;;;;;;37.50;27.97;;;18.00;99.90;;;;;;4960977;28;20570;-58
2023/08/18 00:11:34;;;;;;;38.30;31.27;;;18.00;99.90;;;;;;4979690;28;20880;-58
2023/08/18 00:14:01;;;;;;;37.10;30.70;;;17.90;99.90;;;;;;4979336;28;20756;-57
2023/08/18 00:16:29;;;;;;;39.77;31.67;;;18.00;99.90;;;;;;4968188;28;20467;-57
2023/08/18 00:18:56;;;;;;;36.63;30.27;;;17.90;99.90;;;;;;4960470;29;20550;-57
2023/08/18 00:21:23;;;;;;;38.73;30.00;;;17.90;99.90;;;;;;4961465;28;20555;-58
2023/08/18 00:23:50;;;;;;;36.13;29.10;;;17.90;99.90;;;;;;4960045;29;20954;-57
2023/08/18 00:26:17;;;;;;;38.63;30.03;;;17.90;99.90;;;;;;4959955;28;20463;-57
2023/08/18 00:28:46;;;;;;;34.60;29.37;;;17.90;99.90;;;;;;4959247;29;20472;-58
2023/08/18 00:31:13;;;;;;;40.27;30.47;;;17.90;99.90;;;;;;4967360;28;20465;-58
2023/08/18 00:33:41;;;;;;;37.93;29.47;;;17.80;99.90;;;;;;4979823;28;20497;-58
2023/08/18 00:36:08;;;;;;;35.03;28.53;;;17.90;99.90;;;;;;4978722;28;20465;-57
2023/08/18 00:38:35;;;;;;;40.33;29.40;;;17.90;99.90;;;;;;4979269;28;20744;-58
2023/08/18 00:41:03;;;;;;;40.60;29.90;;;17.90;99.90;;;;;;4976153;28;20798;-57
2023/08/18 00:43:30;;;;;;;37.67;32.47;;;17.90;99.90;;;;;;4960079;29;20500;-57
2023/08/18 00:45:58;;;;;;;43.90;31.20;;;17.90;99.90;;;;;;4959830;28;20477;-58
2023/08/18 00:48:26;;;;;;;35.37;30.40;;;17.90;99.90;;;;;;4959694;29;20533;-58
2023/08/18 00:50:54;;;;;;;37.00;30.57;;;17.90;99.90;;;;;;4959708;29;20823;-58
2023/08/18 00:53:21;;;;;;;35.00;29.17;;;17.90;99.90;;;;;;4975748;28;20577;-57
2023/08/18 00:55:49;;;;;;;33.67;27.87;;;17.80;99.90;;;;;;4977860;28;20472;-58
2023/08/18 00:58:16;;;;;;;38.60;29.60;;;17.80;99.90;;;;;;4965119;28;20459;-57
2023/08/18 01:00:46;;;;;;;34.70;29.20;;;17.80;99.90;;;;;;4960558;28;20918;-57
2023/08/18 01:03:14;;;;;;;34.73;30.30;;;17.80;99.90;;;;;;4959244;29;20499;-58
2023/08/18 01:05:41;;;;;;;34.00;29.00;;;17.80;99.90;;;;;;4959614;29;20469;-58
2023/08/18 01:08:09;;;;;;;33.80;27.33;;;17.80;99.90;;;;;;4959376;29;20467;-57
2023/08/18 01:10:46;;;;;;;37.20;28.30;;;17.70;99.90;;;;;;4977577;28;20557;-57
2023/08/18 01:13:22;;;;;;;38.07;28.53;;;17.80;99.90;;;;;;4978282;28;20465;-58
2023/08/18 01:15:53;;;;;;;33.27;26.70;;;17.80;99.90;;;;;;4978070;28;20484;-58
2023/08/18 01:18:23;;;;;;;35.63;28.40;;;17.80;99.90;;;;;;4978541;28;20520;-58
2023/08/18 01:20:50;;;;;;;42.20;29.30;;;17.70;99.90;;;;;;4961204;28;20855;-57
2023/08/18 01:23:19;;;;;;;30.43;27.20;;;17.70;99.90;;;;;;4960568;28;20490;-58
2023/08/18 01:25:46;;;;;;;35.03;28.83;;;17.80;99.90;;;;;;4958803;29;20469;-58
2023/08/18 01:28:14;;;;;;;30.40;26.93;;;17.60;99.90;;;;;;4959144;29;20462;-57
2023/08/18 01:30:47;;;;;;;33.00;28.10;;;17.70;99.90;;;;;;4959125;29;20467;-58
2023/08/18 01:33:21;;;;;;;42.10;28.67;;;17.70;99.90;;;;;;4959211;29;20469;-58
2023/08/18 01:35:50;;;;;;;33.00;26.97;;;17.60;99.90;;;;;;4972233;28;20511;-58
2023/08/18 01:38:22;;;;;;;37.83;30.17;;;17.60;99.90;;;;;;4977961;28;20848;-57
2023/08/18 01:40:51;;;;;;;34.53;28.90;;;17.60;99.90;;;;;;4958303;28;20479;-57
2023/08/18 01:43:19;;;;;;;33.80;27.80;;;17.60;99.90;;;;;;4959284;29;20481;-57
2023/08/18 01:45:46;;;;;;;32.10;25.40;;;17.60;99.90;;;;;;4967360;28;20465;-57
2023/08/18 01:48:13;;;;;;;32.93;26.50;;;17.60;99.90;;;;;;4978206;28;20787;-57
2023/08/18 01:50:40;;;;;;;33.07;27.67;;;17.60;99.90;;;;;;4976389;28;20903;-57
2023/08/18 01:53:07;;;;;;;32.37;25.97;;;17.50;99.90;;;;;;4977758;28;20489;-57
2023/08/18 01:55:36;;;;;;;31.17;26.57;;;17.50;99.90;;;;;;4973883;28;20469;-58
2023/08/18 01:58:03;;;;;;;31.77;25.43;;;17.60;99.90;;;;;;4959995;28;20840;-57
2023/08/18 02:00:30;;;;;;;35.13;25.93;;;17.60;99.90;;;;;;4958672;29;20566;-58
2023/08/18 02:02:57;;;;;;;28.00;24.00;;;17.60;99.90;;;;;;4958948;29;20462;-57
2023/08/18 02:05:27;;;;;;;33.83;24.53;;;17.60;99.90;;;;;;4958616;29;20585;-58
2023/08/18 02:07:55;;;;;;;35.07;25.67;;;17.50;99.90;;;;;;4977145;28;20466;-58
2023/08/18 02:10:22;;;;;;;32.27;24.37;;;17.50;99.90;;;;;;4975218;28;20473;-58
2023/08/18 02:12:51;;;;;;;31.77;26.33;;;17.50;99.90;;;;;;4958469;29;20462;-58
2023/08/18 02:15:18;;;;;;;31.53;26.10;;;17.50;99.90;;;;;;4958915;29;20494;-58
2023/08/18 02:17:45;;;;;;;33.03;26.57;;;17.50;99.90;;;;;;4958862;29;20760;-57
2023/08/18 02:20:12;;;;;;;30.30;25.93;;;17.60;99.90;;;;;;4958396;29;20442;-58
2023/08/18 02:22:39;;;;;;;30.50;24.63;;;17.60;99.90;;;;;;4975302;28;20465;-57
2023/08/18 02:25:07;;;;;;;29.37;24.97;;;17.50;99.90;;;;;;4978002;28;20498;-58
2023/08/18 02:27:34;;;;;;;29.90;23.30;;;17.50;99.90;;;;;;4980127;28;20895;-58
2023/08/18 02:30:03;;;;;;;29.57;24.97;;;17.50;99.90;;;;;;4981109;28;20462;-57
2023/08/18 02:32:31;;;;;;;34.13;24.07;;;17.60;99.90;;;;;;4968705;28;20522;-57
2023/08/18 02:34:58;;;;;;;27.63;23.50;;;17.60;99.90;;;;;;4961397;29;20463;-61
2023/08/18 02:37:25;;;;;;;31.27;25.10;;;17.50;99.90;;;;;;4962204;28;20884;-61
2023/08/18 02:39:52;;;;;;;33.93;24.60;;;17.50;99.90;;;;;;4962336;29;20462;-61
2023/08/18 02:42:19;;;;;;;29.70;25.03;;;17.60;99.90;;;;;;4962550;28;20442;-61
2023/08/18 02:44:47;;;;;;;30.63;23.37;;;17.60;99.90;;;;;;4962289;28;20545;-61
2023/08/18 02:47:15;;;;;;;32.00;24.87;;;17.60;99.90;;;;;;4973495;28;20466;-60
2023/08/18 02:49:42;;;;;;;28.83;24.20;;;17.50;99.90;;;;;;4981709;28;20465;-61
2023/08/18 02:52:10;;;;;;;30.73;24.50;;;17.50;99.90;;;;;;4981256;28;20462;-60
2023/08/18 02:54:37;;;;;;;28.03;24.40;;;17.50;99.90;;;;;;4981190;28;20478;-61
2023/08/18 02:57:05;;;;;;;31.30;24.30;;;17.50;99.90;;;;;;4976664;28;20879;-60
2023/08/18 02:59:32;;;;;;;30.43;21.80;;;17.50;99.90;;;;;;4971853;28;20529;-61
2023/08/18 03:01:59;;;;;;;30.27;25.13;;;17.40;99.90;;;;;;4962116;29;20448;-60
2023/08/18 03:04:28;;;;;;;28.73;25.30;;;17.50;99.90;;;;;;4961393;29;20601;-61
2023/08/18 03:06:55;;;;;;;33.23;24.13;;;17.50;99.90;;;;;;4961680;29;20910;-60
2023/08/18 03:09:22;;;;;;;30.00;23.53;;;17.50;99.90;;;;;;4976253;28;20559;-60
2023/08/18 03:11:50;;;;;;;30.57;23.70;;;17.50;99.90;;;;;;4980756;28;20462;-61
2023/08/18 03:14:18;;;;;;;26.00;22.43;;;17.50;99.90;;;;;;4980787;28;20545;-60
2023/08/18 03:16:45;;;;;;;30.30;24.40;;;17.50;99.90;;;;;;4980516;28;20462;-61
2023/08/18 03:19:12;;;;;;;30.60;23.17;;;17.50;99.90;;;;;;4970560;28;20761;-61
2023/08/18 03:21:41;;;;;;;35.00;23.70;;;17.50;99.90;;;;;;4961355;28;20463;-60
2023/08/18 03:24:08;;;;;;;27.53;21.63;;;17.50;99.90;;;;;;4961254;28;20495;-61
2023/08/18 03:26:35;;;;;;;30.67;23.47;;;17.50;99.90;;;;;;4960777;29;20466;-60
2023/08/18 03:29:02;;;;;;;25.97;22.40;;;17.50;99.90;;;;;;4965580;28;20770;-60
2023/08/18 03:31:30;;;;;;;31.40;24.10;;;17.50;99.90;;;;;;4981012;28;20468;-60
2023/08/18 03:33:57;;;;;;;29.60;23.80;;;17.50;99.90;;;;;;4978431;28;20461;-61
2023/08/18 03:36:24;;;;;;;29.43;24.37;;;17.50;99.90;;;;;;4980195;28;20469;-61
2023/08/18 03:38:52;;;;;;;26.40;21.90;;;17.50;99.90;;;;;;4980448;28;20485;-61
2023/08/18 03:41:19;;;;;;;29.30;23.80;;;17.40;99.90;;;;;;4975262;28;20454;-61
2023/08/18 03:43:46;;;;;;;26.87;23.00;;;17.50;99.90;;;;;;4960649;28;20469;-63
2023/08/18 03:46:23;;;;;;;28.77;23.23;;;17.50;99.90;;;;;;4959783;28;21036;-61
2023/08/18 03:48:50;;;;;;;31.60;24.73;;;17.50;99.90;;;;;;4960525;29;20923;-61
2023/08/18 03:51:17;;;;;;;28.63;23.67;;;17.40;99.90;;;;;;4960967;29;20504;-60
2023/08/18 03:53:44;;;;;;;32.97;24.37;;;17.50;99.90;;;;;;4960353;28;20769;-60
2023/08/18 03:56:13;;;;;;;30.60;22.47;;;17.50;99.90;;;;;;4976353;28;20466;-60
2023/08/18 03:58:40;;;;;;;28.33;21.83;;;17.50;99.90;;;;;;4980283;28;20461;-61
2023/08/18 04:01:09;;;;;;;28.57;23.90;;;17.40;99.90;;;;;;4979998;28;20752;-60
2023/08/18 04:03:37;;;;;;;27.57;22.57;;;17.50;99.90;;;;;;4977805;28;20568;-60
2023/08/18 04:06:04;;;;;;;27.77;23.43;;;17.50;99.90;;;;;;4968908;28;20494;-59
2023/08/18 04:08:33;;;;;;;28.70;24.30;;;17.50;99.90;;;;;;4958927;29;20759;-60
2023/08/18 04:11:01;;;;;;;26.13;22.27;;;17.50;99.90;;;;;;4959914;28;20885;-60
2023/08/18 04:13:29;;;;;;;29.13;22.43;;;17.40;99.90;;;;;;4959196;29;20455;-60
2023/08/18 04:15:57;;;;;;;31.27;23.20;;;17.50;99.90;;;;;;4958191;29;20466;-61
2023/08/18 04:18:24;;;;;;;29.90;23.47;;;17.50;99.90;;;;;;4960271;28;20781;-61
2023/08/18 04:20:52;;;;;;;27.77;22.93;;;17.50;99.90;;;;;;4969279;28;20462;-60
2023/08/18 04:23:19;;;;;;;23.80;20.70;;;17.40;99.90;;;;;;4979029;28;20473;-61
2023/08/18 04:25:46;;;;;;;25.23;22.53;;;17.40;99.90;;;;;;4977191;28;20485;-61
2023/08/18 04:28:13;;;;;;;26.63;22.00;;;17.40;99.90;;;;;;4961249;28;20525;-61
2023/08/18 04:30:46;;;;;;;30.53;20.80;;;17.40;99.90;;;;;;4963072;28;20772;-60
2023/08/18 04:33:13;;;;;;;25.07;20.13;;;17.40;99.90;;;;;;4979463;28;20458;-60
2023/08/18 04:35:40;;;;;;;24.67;21.10;;;17.40;99.90;;;;;;4978903;28;20462;-60
2023/08/18 04:38:07;;;;;;;23.67;21.07;;;17.30;99.90;;;;;;4978642;28;20468;-61
2023/08/18 04:40:34;;;;;;;25.77;20.07;;;17.40;99.90;;;;;;4978218;28;20857;-60
2023/08/18 04:43:01;;;;;;;26.03;21.27;;;17.40;99.90;;;;;;4960726;28;20755;-60
2023/08/18 04:45:29;;;;;;;26.07;20.07;;;17.40;99.90;;;;;;4960183;28;20490;-60
2023/08/18 04:47:57;;;;;;;27.00;20.93;;;17.40;99.90;;;;;;4959996;29;20470;-61
2023/08/18 04:50:24;;;;;;;32.77;25.03;;;17.40;99.90;;;;;;4959293;28;20458;-61
2023/08/18 04:52:52;;;;;;;27.27;21.83;;;17.40;99.90;;;;;;4959428;29;20915;-61
2023/08/18 04:55:19;;;;;;;27.50;21.40;;;17.40;99.90;;;;;;4975326;28;20822;-60
2023/08/18 04:57:46;;;;;;;26.60;21.40;;;17.40;99.90;;;;;;4977376;28;20476;-61
2023/08/18 05:00:14;;;;;;;24.73;22.00;;;17.50;99.90;;;;;;4979077;28;20440;-61
2023/08/18 05:02:42;;;;;;;25.47;20.70;;;17.50;99.90;;;;;;4978995;28;20966;-60
2023/08/18 05:05:10;;;;;;;24.47;20.70;;;17.50;99.90;;;;;;4973483;28;20956;-61
2023/08/18 05:07:37;;;;;;;23.67;20.07;;;17.50;99.90;;;;;;4961507;28;20486;-61
2023/08/18 05:10:05;;;;;;;24.50;20.10;;;17.40;99.90;;;;;;4978032;28;20564;-61
2023/08/18 05:12:33;;;;;;;26.67;20.20;;;17.50;99.90;;;;;;4975901;28;20466;-61
2023/08/18 05:15:00;;;;;;;23.93;21.33;;;17.50;99.90;;;;;;4977115;28;20453;-61
2023/08/18 05:17:27;;;;;;;22.63;19.83;;;17.40;99.90;;;;;;4976291;28;20462;-61
2023/08/18 05:19:54;;;;;;;31.93;20.83;;;17.50;99.90;;;;;;4977086;28;20461;-61
2023/08/18 05:22:23;;;;;;;24.13;21.10;;;17.50;99.90;;;;;;4975697;28;20484;-60
2023/08/18 05:24:50;;;;;;;24.50;19.50;;;17.60;99.90;;;;;;4956964;28;20979;-60
2023/08/18 05:27:18;;;;;;;24.47;20.80;;;17.60;99.90;;;;;;4961962;28;20472;-60
2023/08/18 05:29:45;;;;;;;27.40;20.93;;;17.60;99.90;;;;;;4976905;28;20464;-60
2023/08/18 05:32:12;;;;;;;22.80;19.83;;;17.60;99.90;;;;;;4976513;28;20467;-60
2023/08/18 05:34:39;;;;;;;22.40;20.00;;;17.60;99.90;;;;;;4970084;28;20710;-60
2023/08/18 05:37:06;;;;;;;23.80;19.80;;;17.70;99.90;;;;;;4968497;28;20491;-61
2023/08/18 05:39:35;;;;;;;26.07;21.00;;;17.70;99.90;;;;;;4958165;28;20467;-61
2023/08/18 05:42:02;;;;;;;25.40;20.87;;;17.70;99.90;;;;;;4976825;28;20466;-63
2023/08/18 05:44:29;;;;;;;25.73;19.60;;;17.80;99.90;;;;;;4977994;28;20462;-63
2023/08/18 05:46:56;;;;;;;24.47;20.10;;;17.90;99.90;;;;;;4978280;28;20901;-63
2023/08/18 05:49:24;;;;;;;22.90;20.40;;;17.90;99.90;;;;;;4964947;28;20643;-63
2023/08/18 05:51:51;;;;;;;24.50;18.93;;;17.90;99.90;;;;;;4958836;28;20470;-62
2023/08/18 05:54:18;;;;;;;23.60;18.57;;;17.90;99.90;;;;;;4958430;29;20501;-63
2023/08/18 05:56:46;;;;;;;22.63;18.80;;;17.90;99.90;;;;;;4958916;29;20462;-63
2023/08/18 05:59:14;;;;;;;27.73;21.17;;;18.00;99.90;;;;;;4965214;28;20564;-63
2023/08/18 06:01:41;;;;;;;23.87;20.00;;;18.00;99.90;;;;;;4969566;28;20462;-63
2023/08/18 06:04:08;;;;;;;22.00;19.70;;;18.00;99.90;;;;;;4962759;29;20462;-63
2023/08/18 06:06:36;;;;;;;24.50;18.83;;;18.00;99.90;;;;;;4962451;29;20589;-63
2023/08/18 06:09:03;;;;;;;21.47;18.20;;;18.00;99.90;;;;;;4962940;29;20489;-63
2023/08/18 06:11:30;;;;;;;21.17;18.80;;;18.10;99.90;;;;;;4965845;28;20773;-63
2023/08/18 06:14:00;;;;;;;23.73;18.33;;;18.10;99.90;;;;;;4980407;28;20921;-63
2023/08/18 06:16:27;;;;;;;19.67;17.67;;;18.00;99.90;;;;;;4981972;28;20458;-63
2023/08/18 06:18:54;;;;;;;18.47;16.67;;;18.10;99.90;;;;;;4982175;28;20466;-63
2023/08/18 06:21:21;;;;;;;23.37;17.80;;;18.10;99.90;;;;;;4981897;28;20461;-63
2023/08/18 06:23:48;;;;;;;22.10;18.50;;;18.10;99.90;;;;;;4978790;28;20508;-63
2023/08/18 06:26:15;;;;;;;18.83;16.80;;;18.10;99.90;;;;;;4975024;28;20500;-63
2023/08/18 06:28:43;;;;;;;20.37;18.27;;;18.20;99.90;;;;;;4963177;28;20525;-63
2023/08/18 06:31:11;;;;;;;20.27;18.10;;;18.30;99.90;;;;;;4980693;28;20461;-63
2023/08/18 06:33:38;;;;;;;19.53;17.43;;;18.40;99.90;;;;;;4980772;28;20875;-63
2023/08/18 06:36:06;;;;;;;18.70;16.77;;;18.40;99.90;;;;;;4981169;28;20468;-63
2023/08/18 06:38:33;;;;;;;17.30;15.40;;;18.50;99.90;;;;;;4966178;28;20506;-63
2023/08/18 06:41:00;;;;;;;19.60;16.67;;;18.50;99.90;;;;;;4963835;28;20935;-63
2023/08/18 06:43:28;;;;;;;19.70;16.53;;;18.60;99.90;;;;;;4959909;29;20780;-63
2023/08/18 06:45:55;;;;;;;15.30;13.80;;;18.50;99.90;;;;;;4960877;29;20592;-63
2023/08/18 06:48:24;;;;;;;17.03;15.33;;;18.60;99.90;;;;;;4960748;29;20893;-63
2023/08/18 06:50:51;;;;;;;16.57;14.87;;;18.70;99.90;;;;;;4967193;28;20500;-63
2023/08/18 06:53:18;;;;;;;15.83;14.23;;;18.80;99.90;;;;;;4979131;28;20500;-63
2023/08/18 06:55:45;;;;;;;16.17;14.53;;;18.90;99.90;;;;;;4979651;28;20488;-63
2023/08/18 06:58:12;;;;;;;16.60;14.07;;;18.80;99.90;;;;;;4980678;28;20838;-63
2023/08/18 07:00:40;;;;;;;16.10;14.30;;;18.90;99.90;;;;;;4980398;28;20466;-63
2023/08/18 07:03:07;;;;;;;17.07;15.27;;;18.90;99.90;;;;;;4979974;28;20461;-63
2023/08/18 07:05:35;;;;;;;16.10;14.50;;;18.80;99.90;;;;;;4970655;28;20494;-63
2023/08/18 07:08:03;;;;;;;14.30;12.90;;;18.90;99.90;;;;;;4960363;28;20462;-63
2023/08/18 07:10:30;;;;;;;15.83;14.33;;;19.00;99.90;;;;;;4960259;29;20466;-63
2023/08/18 07:12:57;;;;;;;15.73;14.13;;;19.10;99.90;;;;;;4959576;28;20462;-63
2023/08/18 07:15:25;;;;;;;13.90;12.60;;;19.10;99.90;;;;;;4959775;28;20463;-62
2023/08/18 07:17:52;;;;;;;14.80;13.20;;;19.20;99.90;;;;;;4959833;29;20848;-63
2023/08/18 07:20:19;;;;;;;14.70;13.20;;;19.30;99.90;;;;;;4961856;28;20467;-63
2023/08/18 07:22:48;;;;;;;15.10;13.47;;;19.30;99.90;;;;;;4961613;29;20747;-63
2023/08/18 07:25:15;;;;;;;15.17;13.67;;;19.40;99.90;;;;;;4961136;29;20521;-63
2023/08/18 07:27:42;;;;;;;15.40;13.83;;;19.40;99.90;;;;;;4975975;28;20469;-63
2023/08/18 07:30:10;;;;;;;18.10;15.00;;;19.50;99.90;;;;;;4978440;28;20461;-63
2023/08/18 07:32:37;;;;;;;19.37;13.50;;;19.50;99.90;;;;;;4978815;28;20548;-63
2023/08/18 07:35:08;;;;;;;17.37;12.97;;;19.60;99.90;;;;;;4979469;28;20461;-63
2023/08/18 07:37:35;;;;;;;15.73;12.67;;;19.70;99.90;;;;;;4966715;28;20510;-63
2023/08/18 07:40:09;;;;;;;14.43;12.93;;;19.70;99.90;;;;;;4960338;28;20761;-63
2023/08/18 07:42:36;;;;;;;19.13;15.00;;;19.80;99.90;;;;;;4961130;28;20558;-63
2023/08/18 07:45:04;;;;;;;14.57;13.00;;;19.80;99.90;;;;;;4962593;28;20471;-64
2023/08/18 07:47:31;;;;;;;15.50;14.00;;;19.90;99.90;;;;;;4970987;28;20784;-63
2023/08/18 07:49:58;;;;;;;14.53;13.10;;;20.10;99.90;;;;;;4963355;28;20487;-63
2023/08/18 07:52:26;;;;;;;14.47;12.97;;;20.20;99.90;;;;;;4958017;28;21007;-63
2023/08/18 07:54:53;;;;;;;14.23;12.20;;;20.40;99.90;;;;;;4958747;29;20458;-64
2023/08/18 07:57:21;;;;;;;13.20;11.90;;;20.40;99.90;;;;;;4960844;28;20485;-64
2023/08/18 07:59:49;;;;;;;13.10;11.80;;;20.60;99.90;;;;;;4978737;28;20465;-63
2023/08/18 08:02:16;;;;;;;13.00;11.80;;;20.80;99.90;;;;;;4979196;28;20468;-64
2023/08/18 08:04:43;;;;;;;14.10;12.70;;;20.90;99.90;;;;;;4979859;28;20469;-64
2023/08/18 08:07:10;;;;;;;12.67;11.00;;;21.10;99.90;;;;;;4978436;28;20497;-64
2023/08/18 08:09:38;;;;;;;11.80;10.57;;;21.10;99.90;;;;;;4961567;28;20471;-63
2023/08/18 08:12:06;;;;;;;11.50;10.33;;;21.30;99.90;;;;;;4959531;28;20876;-63
2023/08/18 08:14:35;;;;;;;14.17;11.80;;;21.40;99.90;;;;;;4958709;28;20544;-64
2023/08/18 08:17:02;;;;;;;12.93;11.73;;;21.70;99.90;;;;;;4959538;29;20873;-64
2023/08/18 08:19:29;;;;;;;11.90;10.80;;;21.90;99.90;;;;;;4968088;28;20452;-63
2023/08/18 08:21:58;;;;;;;13.10;11.73;;;21.90;99.90;;;;;;4979694;28;20909;-64
2023/08/18 08:24:25;;;;;;;13.07;10.60;;;22.00;99.90;;;;;;4962837;28;20645;-64
2023/08/18 08:26:52;;;;;;;11.00;10.00;;;22.20;99.90;;;;;;4959860;28;20494;-63
2023/08/18 08:29:19;;;;;;;10.73;9.73;;;22.30;99.90;;;;;;4959856;29;20462;-64
2023/08/18 08:31:48;;;;;;;10.90;9.80;;;22.50;99.90;;;;;;4960052;28;20491;-64
2023/08/18 08:34:16;;;;;;;13.67;12.27;;;22.70;99.90;;;;;;4969511;28;20472;-64
2023/08/18 08:36:44;;;;;;;12.20;10.93;;;22.40;99.90;;;;;;4979534;28;20517;-64
2023/08/18 08:39:11;;;;;;;13.23;10.87;;;22.80;99.90;;;;;;4979095;28;20488;-64
2023/08/18 08:41:38;;;;;;;12.70;11.40;;;22.40;1.00;;;;;;4979395;28;20462;-64
2023/08/18 08:44:06;;;;;;;11.70;10.70;;;22.70;99.90;;;;;;4973907;28;20471;-64
2023/08/18 08:46:35;;;;;;;12.43;11.33;;;22.30;99.90;;;;;;4959889;28;20498;-64
2023/08/18 08:49:05;;;;;;;12.57;11.30;;;22.40;99.90;;;;;;4959772;28;20489;-64
2023/08/18 08:51:37;;;;;;;11.27;10.33;;;22.70;99.90;;;;;;4959809;29;20522;-64
2023/08/18 08:54:07;;;;;;;12.40;11.30;;;23.20;99.90;;;;;;4958983;28;20493;-64
2023/08/18 08:56:37;;;;;;;11.87;10.87;;;23.20;16.10;;;;;;4978464;28;20466;-64
2023/08/18 08:59:05;;;;;;;12.30;11.00;;;22.40;99.90;;;;;;4978225;28;20903;-63
2023/08/18 09:01:32;;;;;;;11.23;10.23;;;23.10;99.90;;;;;;4978946;28;20800;-64
2023/08/18 09:04:00;;;;;;;11.57;10.60;;;23.20;39.80;;;;;;4979343;28;20464;-64
2023/08/18 09:06:29;;;;;;;9.67;8.87;;;23.90;95.90;;;;;;4962279;28;20494;-64
2023/08/18 09:08:57;;;;;;;10.80;9.80;;;24.60;11.70;;;;;;4959542;28;20877;-64
2023/08/18 09:11:40;;;;;;;9.90;9.10;;;24.80;1.00;;;;;;4959665;29;20469;-64
2023/08/18 09:14:07;;;;;;;10.40;9.50;;;24.90;1.00;;;;;;4959088;29;20561;-63
2023/08/18 09:16:35;;;;;;;10.03;9.00;;;23.90;1.00;;;;;;4970108;28;20553;-64
2023/08/18 09:19:03;;;;;;;10.77;9.77;;;23.80;1.00;;;;;;4978329;28;20966;-64
2023/08/18 09:21:33;;;;;;;10.37;9.47;;;24.30;1.00;;;;;;4978685;28;20468;-64
2023/08/18 09:24:00;;;;;;;10.03;9.07;;;24.10;1.00;;;;;;4979247;28;20461;-64
2023/08/18 09:26:28;;;;;;;11.00;10.00;;;24.20;1.00;;;;;;4970830;28;20496;-63
2023/08/18 09:28:55;;;;;;;9.70;8.80;;;24.10;1.00;;;;;;4959054;28;20502;-64
2023/08/18 09:31:22;;;;;;;10.17;9.37;;;24.50;1.00;;;;;;4958639;28;21079;-64
2023/08/18 09:33:51;;;;;;;8.53;7.73;;;25.00;1.00;;;;;;4959218;29;20889;-64
2023/08/18 09:36:20;;;;;;;8.57;7.77;;;25.80;1.00;;;;;;4959745;28;20469;-64
2023/08/18 09:38:48;;;;;;;9.47;8.67;;;26.60;1.00;;;;;;4973432;28;20778;-63
2023/08/18 09:41:16;;;;;;;8.70;8.00;;;27.20;1.00;;;;;;4974490;28;20466;-63
2023/08/18 09:43:43;;;;;;;9.10;8.30;;;27.60;1.00;;;;;;4963501;28;20549;-64
2023/08/18 09:46:14;;;;;;;9.80;7.17;;;27.70;1.00;;;;;;4957371;29;20505;-63
2023/08/18 09:48:46;;;;;;;8.60;7.77;;;26.80;1.00;;;;;;4958780;28;20901;-63
2023/08/18 09:51:14;;;;;;;8.33;7.73;;;26.40;1.00;;;;;;4978370;28;20461;-64
2023/08/18 09:53:50;;;;;;;7.70;7.00;;;27.00;1.00;;;;;;4977399;28;20536;-63
2023/08/18 09:56:25;;;;;;;7.23;6.63;;;27.70;1.00;;;;;;4976065;28;20504;-64
2023/08/18 09:58:55;;;;;;;7.03;6.53;;;28.10;1.00;;;;;;4976964;28;20465;-64
2023/08/18 10:01:24;;;;;;;8.67;7.90;;;28.70;1.00;;;;;;4958371;28;20476;-64
2023/08/18 10:03:51;;;;;;;7.93;7.23;;;29.20;1.00;;;;;;4957906;28;20469;-64
2023/08/18 10:06:19;;;;;;;7.33;6.70;;;29.60;1.00;;;;;;4958004;29;20501;-64
2023/08/18 10:08:47;;;;;;;7.77;6.97;;;29.80;1.00;;;;;;4958212;29;20466;-63
2023/08/18 10:11:15;;;;;;;7.20;6.50;;;30.00;1.00;;;;;;4970916;28;20953;-64
2023/08/18 10:13:45;;;;;;;7.27;6.60;;;30.10;1.00;;;;;;4976381;28;20487;-64
2023/08/18 10:16:12;;;;;;;7.63;6.80;;;30.40;1.00;;;;;;4976541;28;20465;-64
2023/08/18 10:18:39;;;;;;;9.07;6.67;;;30.30;1.00;;;;;;4976031;28;20471;-64
2023/08/18 10:21:10;;;;;;;7.87;7.27;;;30.40;1.00;;;;;;4968525;28;20468;-63
2023/08/18 10:23:40;;;;;;;8.53;7.83;;;29.80;1.00;;;;;;4957173;29;20469;-63
2023/08/18 10:26:08;;;;;;;7.80;7.10;;;30.40;1.00;;;;;;4956900;28;20496;-63
2023/08/18 10:28:36;;;;;;;6.70;6.20;;;30.50;1.00;;;;;;4957440;29;20490;-63
2023/08/18 10:31:09;;;;;;;7.03;6.33;;;30.50;1.00;;;;;;4961140;28;20472;-64
2023/08/18 10:33:43;;;;;;;7.43;6.73;;;30.70;1.00;;;;;;4977981;28;20564;-64
2023/08/18 10:36:14;;;;;;;6.27;5.80;;;30.90;1.00;;;;;;4977437;28;20465;-63
2023/08/18 10:38:41;;;;;;;7.57;6.70;;;30.30;1.00;;;;;;4977061;28;20777;-63
2023/08/18 10:41:09;;;;;;;7.60;7.00;;;29.90;1.00;;;;;;4959694;28;20913;-64
2023/08/18 10:43:45;;;;;;;7.87;7.37;;;30.10;1.00;;;;;;4958547;29;20517;-64
2023/08/18 10:46:14;;;;;;;7.37;6.73;;;30.70;1.00;;;;;;4958600;28;20589;-63
2023/08/18 10:48:42;;;;;;;7.60;6.90;;;30.90;1.00;;;;;;4960702;29;20461;-63
2023/08/18 10:51:09;;;;;;;7.90;7.10;;;30.80;1.00;;;;;;4961979;29;20466;-64
2023/08/18 10:53:40;;;;;;;8.20;7.27;;;31.10;1.00;;;;;;4977044;28;20500;-64
2023/08/18 10:56:08;;;;;;;6.57;5.97;;;31.20;1.00;;;;;;4979373;28;20461;-62
2023/08/18 10:58:35;;;;;;;6.70;6.20;;;31.20;1.00;;;;;;4973648;28;20475;-64
2023/08/18 11:01:05;;;;;;;7.67;7.07;;;31.40;1.00;;;;;;4981087;28;20810;-63
2023/08/18 11:03:34;;;;;;;8.40;7.70;;;30.90;1.00;;;;;;4969199;28;20470;-64
2023/08/18 11:06:02;;;;;;;6.43;6.03;;;30.90;1.00;;;;;;4967574;28;20473;-64
2023/08/18 11:08:30;;;;;;;7.17;6.67;;;31.30;1.00;;;;;;4980814;28;20460;-63
2023/08/18 11:10:58;;;;;;;7.50;6.80;;;31.40;1.00;;;;;;4972244;28;20544;-63
2023/08/18 11:13:27;;;;;;;6.90;6.40;;;31.40;1.00;;;;;;4961015;28;20765;-63
2023/08/18 11:15:55;;;;;;;7.60;7.00;;;31.50;1.00;;;;;;4961345;28;20556;-64
2023/08/18 11:18:24;;;;;;;6.93;6.33;;;31.40;1.00;;;;;;4962220;28;20469;-63
2023/08/18 11:20:53;;;;;;;8.53;7.90;;;31.10;1.00;;;;;;4961330;29;20908;-63
2023/08/18 11:23:21;;;;;;;7.70;7.20;;;31.00;1.00;;;;;;4961515;28;20903;-63
2023/08/18 11:25:48;;;;;;;7.37;6.80;;;31.20;1.00;;;;;;4979143;28;20475;-64
2023/08/18 11:28:16;;;;;;;7.10;6.60;;;31.60;1.00;;;;;;4978258;28;20499;-64
2023/08/18 11:30:46;;;;;;;7.77;6.97;;;31.80;1.00;;;;;;4978818;28;20516;-63
2023/08/18 11:33:13;;;;;;;7.40;6.80;;;31.70;1.00;;;;;;4978957;28;20886;-64
2023/08/18 11:35:40;;;;;;;7.40;6.90;;;31.60;1.00;;;;;;4975967;28;20479;-63
2023/08/18 11:38:10;;;;;;;7.43;6.73;;;31.80;1.00;;;;;;4978521;28;20896;-64
2023/08/18 11:40:38;;;;;;;7.10;6.40;;;31.50;1.00;;;;;;4976848;28;20507;-64
2023/08/18 11:43:11;;;;;;;8.33;7.73;;;31.80;1.00;;;;;;4960266;28;20477;-64
2023/08/18 11:45:38;;;;;;;6.97;6.43;;;32.00;1.00;;;;;;4971078;28;20907;-63
2023/08/18 11:48:07;;;;;;;7.80;7.20;;;32.30;1.00;;;;;;4975869;28;20502;-64
2023/08/18 11:50:35;;;;;;;8.83;8.00;;;32.60;1.00;;;;;;4960515;28;20884;-64
2023/08/18 11:53:04;;;;;;;8.13;7.43;;;32.00;99.90;;;;;;4959162;29;20543;-64
2023/08/18 11:55:35;;;;;;;6.90;6.30;;;32.40;99.90;;;;;;4960875;28;20281;-64
2023/08/18 11:58:08;;;;;;;9.50;7.90;;;32.10;99.90;;;;;;4959923;28;20626;-63
2023/08/18 12:00:37;;;;;;;7.20;6.60;;;32.00;99.90;;;;;;4959489;29;20278;-64
2023/08/18 12:03:05;;;;;;;7.03;6.30;;;32.10;99.90;;;;;;4960235;29;20458;-63
2023/08/18 12:05:32;;;;;;;6.90;6.30;;;32.00;99.90;;;;;;4960525;28;20565;-63
2023/08/18 12:08:01;;;;;;;7.57;6.90;;;32.00;99.90;;;;;;4979440;28;20503;-64
2023/08/18 12:10:28;;;;;;;7.82;7.22;;;32.40;99.90;;;;;;4978850;28;20465;-64
2023/08/18 12:12:58;;;;;;;7.55;6.97;;;33.20;1.00;;;;;;4978670;28;20206;-63
2023/08/18 12:15:26;;;;;;;7.38;6.85;;;33.60;99.90;;;;;;4978642;28;20210;-64
2023/08/18 12:17:54;;;;;;;7.65;7.05;;;33.80;99.90;;;;;;4978577;28;20206;-62
2023/08/18 12:20:23;;;;;;;7.38;6.78;;;33.50;99.90;;;;;;4978218;28;20422;-63
2023/08/18 12:22:52;;;;;;;7.53;6.93;;;33.10;99.90;;;;;;4978276;28;20206;-64
2023/08/18 12:25:19;;;;;;;7.00;6.47;;;32.90;99.90;;;;;;4979158;28;20297;-63
2023/08/18 12:27:47;;;;;;;9.03;8.23;;;32.70;99.90;;;;;;4978821;28;20496;-63
2023/08/18 12:30:17;;;;;;;7.43;6.57;;;32.10;99.90;;;;;;4979062;28;20210;-63
2023/08/18 12:32:46;;;;;;;8.03;7.43;;;31.70;99.90;;;;;;4962667;28;20462;-64
2023/08/18 12:35:13;;;;;;;8.30;7.23;;;31.90;99.90;;;;;;4966751;28;20474;-63
2023/08/18 12:37:42;;;;;;;8.17;7.43;;;32.20;99.90;;;;;;4959331;29;20497;-64
2023/08/18 12:40:10;;;;;;;6.70;6.13;;;32.60;99.90;;;;;;4959064;28;20500;-64